Time;durP1;ratioP1;P1;durP2;ratioP2;P2;SDS_P1;SDS_P2;PMS_P1;PMS_P2;Temp;Humidity;BMP_temperature;BMP_pressure;BME280_temperature;BME280_humidity;BME280_pressure;Samples;Min_cycle;Max_cycle;Signal;HPM_P1;HPM_P2
2022/02/18 00:02:12;;;;;;;9.35;2.70;;;;;;;;;;4970125;28;20059;-64
2022/02/18 00:04:43;;;;;;;7.63;2.85;;;;;;;;;;4969923;28;20090;-64
2022/02/18 00:07:14;;;;;;;8.77;2.10;;;;;;;;;;4937866;28;20066;-64
2022/02/18 00:09:44;;;;;;;9.18;2.35;;;;;;;;;;4969999;28;20051;-64
2022/02/18 00:12:15;;;;;;;6.45;2.40;;;;;;;;;;4970016;28;20067;-64
2022/02/18 00:14:53;;;;;;;7.47;2.90;;;;;;;;;;4969996;28;20078;-64
2022/02/18 00:17:24;;;;;;;14.85;2.75;;;;;;;;;;4971966;28;20051;-63
2022/02/18 00:19:54;;;;;;;13.23;2.70;;;;;;;;;;4989156;28;20502;-63
2022/02/18 00:22:27;;;;;;;6.70;2.38;;;;;;;;;;4941233;28;20058;-64
2022/02/18 00:24:58;;;;;;;8.98;2.40;;;;;;;;;;4940846;28;20051;-63
2022/02/18 00:27:29;;;;;;;7.40;2.47;;;;;;;;;;5000358;28;20467;-64
2022/02/18 00:30:00;;;;;;;8.18;2.20;;;;;;;;;;4969381;28;20410;-64
2022/02/18 00:32:31;;;;;;;10.68;2.05;;;;;;;;;;4969716;28;20055;-63
2022/02/18 00:35:01;;;;;;;8.88;2.45;;;;;;;;;;4954715;28;20047;-64
2022/02/18 00:37:32;;;;;;;10.50;2.47;;;;;;;;;;4989188;28;20054;-64
2022/02/18 00:40:04;;;;;;;7.80;2.05;;;;;;;;;;4950079;29;20058;-64
2022/02/18 00:42:34;;;;;;;10.88;2.00;;;;;;;;;;4950422;29;21040;-64
2022/02/18 00:45:04;;;;;;;7.97;2.30;;;;;;;;;;4902857;29;20070;-64
2022/02/18 00:47:35;;;;;;;8.30;2.58;;;;;;;;;;4912113;29;20052;-64
2022/02/18 00:50:06;;;;;;;7.70;2.67;;;;;;;;;;4912167;29;20064;-64
2022/02/18 00:52:36;;;;;;;10.48;2.38;;;;;;;;;;4912119;29;20064;-64
2022/02/18 00:55:06;;;;;;;6.88;2.65;;;;;;;;;;4915567;29;20123;-64
2022/02/18 00:57:38;;;;;;;10.48;2.42;;;;;;;;;;4865796;29;20057;-64
2022/02/18 01:00:12;;;;;;;11.00;2.30;;;;;;;;;;4896810;29;20056;-64
2022/02/18 01:02:44;;;;;;;6.03;2.42;;;;;;;;;;4865685;29;20061;-64
2022/02/18 01:05:14;;;;;;;13.68;2.47;;;;;;;;;;4896825;29;20056;-64
2022/02/18 01:07:47;;;;;;;8.05;2.90;;;;;;;;;;4897272;29;20057;-64
2022/02/18 01:10:17;;;;;;;7.95;2.30;;;;;;;;;;4877883;29;20442;-64
2022/02/18 01:12:47;;;;;;;9.00;2.55;;;;;;;;;;4877945;29;20060;-64
2022/02/18 01:15:18;;;;;;;5.30;2.03;;;;;;;;;;4878076;29;20057;-64
2022/02/18 01:17:50;;;;;;;10.35;2.53;;;;;;;;;;4872619;29;20056;-64
2022/02/18 01:20:24;;;;;;;13.20;2.38;;;;;;;;;;4850683;29;20123;-64
2022/02/18 01:22:54;;;;;;;12.27;2.53;;;;;;;;;;4896563;29;20052;-64
2022/02/18 01:25:25;;;;;;;7.57;2.08;;;;;;;;;;4907120;29;20052;-64
2022/02/18 01:27:56;;;;;;;7.55;2.33;;;;;;;;;;4884020;29;20394;-64
2022/02/18 01:30:28;;;;;;;8.40;2.42;;;;;;;;;;4868162;29;20445;-65
2022/02/18 01:32:58;;;;;;;7.68;2.10;;;;;;;;;;4915342;29;20044;-64
2022/02/18 01:35:29;;;;;;;8.98;2.30;;;;;;;;;;4895385;29;20059;-64
2022/02/18 01:38:02;;;;;;;10.75;2.38;;;;;;;;;;4887025;29;20055;-64
2022/02/18 01:40:33;;;;;;;10.48;2.45;;;;;;;;;;4933973;29;20055;-65
2022/02/18 01:43:04;;;;;;;6.47;2.17;;;;;;;;;;4877377;29;20541;-64
2022/02/18 01:45:35;;;;;;;9.40;2.15;;;;;;;;;;4877648;29;20088;-65
2022/02/18 01:48:05;;;;;;;7.75;1.90;;;;;;;;;;4898896;29;20059;-64
2022/02/18 01:50:36;;;;;;;8.02;1.92;;;;;;;;;;4899297;29;20052;-65
2022/02/18 01:53:11;;;;;;;7.22;2.28;;;;;;;;;;4914946;29;20063;-64
2022/02/18 01:55:42;;;;;;;9.65;2.00;;;;;;;;;;4914593;29;20052;-64
2022/02/18 01:58:12;;;;;;;7.00;1.75;;;;;;;;;;4914814;29;20127;-65
2022/02/18 02:00:43;;;;;;;5.90;1.50;;;;;;;;;;4929705;29;20412;-64
2022/02/18 02:03:13;;;;;;;3.50;1.83;;;;;;;;;;4936377;29;20438;-65
2022/02/18 02:05:45;;;;;;;3.97;1.45;;;;;;;;;;4936400;29;20542;-65
2022/02/18 02:08:15;;;;;;;;;;;;;;;;;;4953528;29;20059;-65
2022/02/18 02:10:49;;;;;;;5.68;1.80;;;;;;;;;;4971657;28;20310;-65
2022/02/18 02:13:36;;;;;;;6.03;1.60;;;;;;;;;;4933097;29;20059;-65
2022/02/18 02:16:14;;;;;;;3.65;1.52;;;;;;;;;;4933225;29;20048;-65
2022/02/18 02:18:44;;;;;;;5.45;1.70;;;;;;;;;;4914253;29;20053;-64
2022/02/18 02:21:15;;;;;;;4.28;1.60;;;;;;;;;;4876568;29;20518;-65
2022/02/18 02:23:50;;;;;;;4.85;1.55;;;;;;;;;;4839430;29;20057;-65
2022/02/18 02:26:28;;;;;;;8.48;1.67;;;;;;;;;;4857995;29;20523;-65
2022/02/18 02:29:01;;;;;;;3.05;1.25;;;;;;;;;;4828321;29;20396;-65
2022/02/18 02:31:31;;;;;;;4.55;1.42;;;;;;;;;;4857775;29;20049;-64
2022/02/18 02:34:03;;;;;;;4.80;1.50;;;;;;;;;;4836374;29;20054;-64
2022/02/18 02:36:39;;;;;;;3.72;1.50;;;;;;;;;;4815973;29;20058;-65
2022/02/18 02:39:10;;;;;;;4.53;1.30;;;;;;;;;;4827188;29;20058;-64
2022/02/18 02:41:41;;;;;;;4.13;1.70;;;;;;;;;;4805900;29;20058;-64
2022/02/18 02:44:14;;;;;;;4.68;2.03;;;;;;;;;;4835984;29;20065;-64
2022/02/18 02:46:45;;;;;;;3.35;1.55;;;;;;;;;;4805727;29;20220;-64
2022/02/18 02:49:24;;;;;;;3.53;1.77;;;;;;;;;;4807602;29;20102;-64
2022/02/18 02:51:55;;;;;;;4.95;2.45;;;;;;;;;;4857143;29;20068;-64
2022/02/18 02:54:25;;;;;;;3.05;1.77;;;;;;;;;;4852456;29;20045;-64
2022/02/18 02:57:06;;;;;;;8.18;1.80;;;;;;;;;;4871527;29;20079;-64
2022/02/18 02:59:48;;;;;;;4.10;1.85;;;;;;;;;;4857248;29;20074;-64
2022/02/18 03:02:19;;;;;;;5.40;1.60;;;;;;;;;;4845241;29;20054;-64
2022/02/18 03:04:51;;;;;;;;;;;;;;;;;;4827817;29;20426;-64
2022/02/18 03:07:22;;;;;;;3.72;1.77;;;;;;;;;;4841453;29;19924;-65
2022/02/18 03:09:59;;;;;;;4.68;1.80;;;;;;;;;;4823918;29;20054;-64
2022/02/18 03:12:29;;;;;;;7.38;1.80;;;;;;;;;;4824377;29;20062;-64
2022/02/18 03:15:08;;;;;;;2.72;1.42;;;;;;;;;;4857105;29;20061;-64
2022/02/18 03:17:44;;;;;;;5.82;2.15;;;;;;;;;;4829001;29;20050;-64
2022/02/18 03:20:34;;;;;;;6.57;1.80;;;;;;;;;;4820950;29;20505;-64
2022/02/18 03:23:05;;;;;;;3.92;1.60;;;;;;;;;;4817137;29;20066;-64
2022/02/18 03:25:36;;;;;;;4.00;1.52;;;;;;;;;;4850299;29;20061;-64
2022/02/18 03:28:07;;;;;;;7.13;1.70;;;;;;;;;;4771951;29;20051;-64
2022/02/18 03:30:37;;;;;;;7.35;2.10;;;;;;;;;;4763038;29;20060;-65
2022/02/18 03:33:11;;;;;;;5.85;1.67;;;;;;;;;;4811144;29;20106;-64
2022/02/18 03:35:42;;;;;;;5.20;1.58;;;;;;;;;;4794720;29;20071;-64
2022/02/18 03:38:14;;;;;;;;;;;;;;;;;;4831495;29;20426;-64
2022/02/18 03:40:47;;;;;;;4.13;2.10;;;;;;;;;;4805089;29;20790;-64
2022/02/18 03:43:19;;;;;;;4.30;1.55;;;;;;;;;;4786851;29;20063;-65
2022/02/18 03:46:09;;;;;;;7.57;2.00;;;;;;;;;;4800910;29;20059;-65
2022/02/18 03:48:40;;;;;;;11.18;2.03;;;;;;;;;;4755719;29;20047;-64
2022/02/18 03:51:10;;;;;;;4.82;1.75;;;;;;;;;;4787899;29;20413;-64
2022/02/18 03:53:41;;;;;;;5.15;1.70;;;;;;;;;;4819632;29;20058;-64
2022/02/18 03:56:17;;;;;;;5.20;1.55;;;;;;;;;;4774106;29;20063;-65
2022/02/18 03:58:55;;;;;;;6.05;1.63;;;;;;;;;;4801572;29;20178;-65
2022/02/18 04:01:26;;;;;;;5.65;1.98;;;;;;;;;;4801724;29;20055;-65
2022/02/18 04:03:56;;;;;;;5.68;1.65;;;;;;;;;;4781729;29;20063;-64
2022/02/18 04:06:33;;;;;;;4.30;1.75;;;;;;;;;;4751670;30;20063;-64
2022/02/18 04:09:09;;;;;;;4.07;1.73;;;;;;;;;;4801409;29;20062;-64
2022/02/18 04:11:48;;;;;;;7.78;1.73;;;;;;;;;;4819626;29;20046;-64
2022/02/18 04:14:19;;;;;;;5.88;1.90;;;;;;;;;;4819596;29;20073;-65
2022/02/18 04:17:00;;;;;;;2.63;1.45;;;;;;;;;;4802364;29;20066;-64
2022/02/18 04:19:34;;;;;;;7.00;1.90;;;;;;;;;;4802294;29;20125;-65
2022/02/18 04:22:33;;;;;;;3.72;1.45;;;;;;;;;;4819390;29;20400;-64
2022/02/18 04:25:04;;;;;;;5.60;1.77;;;;;;;;;;4837795;29;20054;-64
2022/02/18 04:27:35;;;;;;;2.78;1.40;;;;;;;;;;4838080;29;20062;-64
2022/02/18 04:30:07;;;;;;;7.13;1.80;;;;;;;;;;4841363;29;20065;-64
2022/02/18 04:32:38;;;;;;;4.20;1.48;;;;;;;;;;4805594;29;20066;-65
2022/02/18 04:35:11;;;;;;;4.90;1.60;;;;;;;;;;4804944;29;20070;-65
2022/02/18 04:37:43;;;;;;;4.63;1.60;;;;;;;;;;4820376;29;20843;-65
2022/02/18 04:40:15;;;;;;;3.88;1.70;;;;;;;;;;4804876;29;20058;-64
2022/02/18 04:42:47;;;;;;;6.38;1.70;;;;;;;;;;4841530;29;20069;-65
2022/02/18 04:45:17;;;;;;;4.97;1.48;;;;;;;;;;4859777;29;20049;-64
2022/02/18 04:47:47;;;;;;;4.78;1.85;;;;;;;;;;4792058;29;20059;-65
2022/02/18 04:50:18;;;;;;;2.97;1.73;;;;;;;;;;4771973;30;20059;-65
2022/02/18 04:52:49;;;;;;;6.18;2.00;;;;;;;;;;4771720;30;20105;-65
2022/02/18 04:55:20;;;;;;;3.78;1.50;;;;;;;;;;4828280;29;20066;-65
2022/02/18 04:57:51;;;;;;;3.45;1.50;;;;;;;;;;4799447;29;20054;-65
2022/02/18 05:00:21;;;;;;;3.78;1.60;;;;;;;;;;4814876;29;20050;-65
2022/02/18 05:02:52;;;;;;;6.18;1.52;;;;;;;;;;4845744;29;20062;-65
2022/02/18 05:05:23;;;;;;;3.80;1.40;;;;;;;;;;4822758;29;20054;-64
2022/02/18 05:07:54;;;;;;;6.28;1.60;;;;;;;;;;4842437;29;20066;-64
2022/02/18 05:10:25;;;;;;;4.90;1.73;;;;;;;;;;4813928;29;20058;-65
2022/02/18 05:12:57;;;;;;;7.00;1.60;;;;;;;;;;4811134;29;20069;-65
2022/02/18 05:15:27;;;;;;;7.15;1.98;;;;;;;;;;4841091;29;20065;-65
2022/02/18 05:18:02;;;;;;;6.85;1.70;;;;;;;;;;4842589;29;20155;-64
2022/02/18 05:20:33;;;;;;;6.80;1.65;;;;;;;;;;4822981;29;20574;-65
2022/02/18 05:23:05;;;;;;;6.53;2.05;;;;;;;;;;4879959;29;20056;-65
2022/02/18 05:25:35;;;;;;;6.43;2.53;;;;;;;;;;4896451;29;20087;-64
2022/02/18 05:28:07;;;;;;;3.13;1.65;;;;;;;;;;4877572;29;20060;-64
2022/02/18 05:30:38;;;;;;;3.25;1.58;;;;;;;;;;4877778;29;20072;-65
2022/02/18 05:33:09;;;;;;;3.30;1.35;;;;;;;;;;4893394;29;20069;-65
2022/02/18 05:35:41;;;;;;;5.95;2.00;;;;;;;;;;4877494;29;20068;-65
2022/02/18 05:38:11;;;;;;;3.70;1.80;;;;;;;;;;4877681;29;20057;-65
2022/02/18 05:40:42;;;;;;;4.05;1.30;;;;;;;;;;4877570;29;20461;-65
2022/02/18 05:43:12;;;;;;;7.53;1.42;;;;;;;;;;4827715;29;20053;-65
2022/02/18 05:45:42;;;;;;;8.93;1.60;;;;;;;;;;4879966;29;20057;-64
2022/02/18 05:48:13;;;;;;;3.08;1.52;;;;;;;;;;4896172;29;20067;-65
2022/02/18 05:50:44;;;;;;;3.55;1.35;;;;;;;;;;4887979;29;20056;-65
2022/02/18 05:53:14;;;;;;;3.88;2.08;;;;;;;;;;4895918;29;20061;-64
2022/02/18 05:55:49;;;;;;;4.75;1.85;;;;;;;;;;4896053;29;20060;-64
2022/02/18 05:58:20;;;;;;;3.50;1.83;;;;;;;;;;4895906;29;20049;-64
2022/02/18 06:00:51;;;;;;;6.43;1.83;;;;;;;;;;4864557;29;20052;-64
2022/02/18 06:03:22;;;;;;;3.25;1.40;;;;;;;;;;4895829;29;20056;-64
2022/02/18 06:05:52;;;;;;;3.45;1.85;;;;;;;;;;4896072;29;20053;-64
2022/02/18 06:08:22;;;;;;;6.47;1.40;;;;;;;;;;4895434;29;20057;-65
2022/02/18 06:10:52;;;;;;;4.22;1.52;;;;;;;;;;4895859;29;20049;-64
2022/02/18 06:13:23;;;;;;;2.67;1.42;;;;;;;;;;4895653;29;20061;-64
2022/02/18 06:15:53;;;;;;;4.65;1.65;;;;;;;;;;4895854;29;20064;-65
2022/02/18 06:18:23;;;;;;;5.03;1.60;;;;;;;;;;4910978;29;20052;-65
2022/02/18 06:20:53;;;;;;;4.47;1.67;;;;;;;;;;4915127;29;20412;-64
2022/02/18 06:23:24;;;;;;;4.00;1.48;;;;;;;;;;4895403;29;20053;-65
2022/02/18 06:25:54;;;;;;;3.65;1.75;;;;;;;;;;4895423;29;20130;-65
2022/02/18 06:28:25;;;;;;;4.00;1.85;;;;;;;;;;4905195;29;20060;-65
2022/02/18 06:30:55;;;;;;;5.47;1.80;;;;;;;;;;4873168;29;20061;-64
2022/02/18 06:33:26;;;;;;;5.50;1.65;;;;;;;;;;4858189;29;20070;-65
2022/02/18 06:35:57;;;;;;;4.38;1.92;;;;;;;;;;4865822;29;20061;-65
2022/02/18 06:38:27;;;;;;;3.95;1.80;;;;;;;;;;4857959;29;20065;-64
2022/02/18 06:40:57;;;;;;;3.38;1.40;;;;;;;;;;4839200;29;20068;-65
2022/02/18 06:43:27;;;;;;;3.25;1.55;;;;;;;;;;4793832;29;20053;-65
2022/02/18 06:45:58;;;;;;;3.78;1.90;;;;;;;;;;4839663;29;20058;-65
2022/02/18 06:48:28;;;;;;;3.42;1.50;;;;;;;;;;4794129;29;20065;-65
2022/02/18 06:50:58;;;;;;;4.10;1.52;;;;;;;;;;4838519;29;20062;-64
2022/02/18 06:53:29;;;;;;;4.13;1.83;;;;;;;;;;4824723;29;20057;-65
2022/02/18 06:56:00;;;;;;;4.18;1.90;;;;;;;;;;4793881;29;20207;-65
2022/02/18 06:58:31;;;;;;;5.88;1.85;;;;;;;;;;4839189;29;20065;-65
2022/02/18 07:01:02;;;;;;;3.75;1.88;;;;;;;;;;4831551;29;20064;-64
2022/02/18 07:03:33;;;;;;;3.80;1.80;;;;;;;;;;4895680;28;20066;-64
2022/02/18 07:06:03;;;;;;;4.18;1.70;;;;;;;;;;4951896;28;20070;-65
2022/02/18 07:08:34;;;;;;;3.70;1.60;;;;;;;;;;4953284;28;20399;-64
2022/02/18 07:11:04;;;;;;;6.68;1.65;;;;;;;;;;4971059;28;20050;-64
2022/02/18 07:13:35;;;;;;;6.70;2.00;;;;;;;;;;4971023;28;20055;-65
2022/02/18 07:16:06;;;;;;;7.82;2.10;;;;;;;;;;4923090;28;20046;-65
2022/02/18 07:18:36;;;;;;;3.70;1.75;;;;;;;;;;4991516;28;20061;-65
2022/02/18 07:21:07;;;;;;;6.13;1.98;;;;;;;;;;5012232;28;20494;-64
2022/02/18 07:23:38;;;;;;;6.70;1.75;;;;;;;;;;4973886;28;20457;-65
2022/02/18 07:26:10;;;;;;;5.43;2.05;;;;;;;;;;4990153;28;20097;-64
2022/02/18 07:28:41;;;;;;;4.68;2.10;;;;;;;;;;4974374;28;20529;-65
2022/02/18 07:31:11;;;;;;;8.27;2.30;;;;;;;;;;4990325;28;20638;-65
2022/02/18 07:33:41;;;;;;;7.22;2.42;;;;;;;;;;4989979;28;20158;-65
2022/02/18 07:36:12;;;;;;;6.00;2.13;;;;;;;;;;4989760;28;20112;-66
2022/02/18 07:38:42;;;;;;;4.57;1.80;;;;;;;;;;4989727;28;20546;-64
2022/02/18 07:41:12;;;;;;;4.85;1.80;;;;;;;;;;4989872;28;20058;-65
2022/02/18 07:43:43;;;;;;;7.20;2.20;;;;;;;;;;4941604;28;20062;-64
2022/02/18 07:46:14;;;;;;;12.32;1.98;;;;;;;;;;4989846;28;20054;-64
2022/02/18 07:48:44;;;;;;;5.63;2.00;;;;;;;;;;4989794;28;20065;-64
2022/02/18 07:51:17;;;;;;;6.80;1.80;;;;;;;;;;4927221;28;20146;-64
2022/02/18 07:53:47;;;;;;;8.35;1.80;;;;;;;;;;4966432;28;20058;-64
2022/02/18 07:56:17;;;;;;;7.60;1.88;;;;;;;;;;4935446;29;20087;-64
2022/02/18 07:58:48;;;;;;;6.13;2.03;;;;;;;;;;4951024;29;20055;-64
2022/02/18 08:01:18;;;;;;;5.18;1.85;;;;;;;;;;4928911;28;20597;-64
2022/02/18 08:03:51;;;;;;;5.93;2.05;;;;;;;;;;4931296;29;20059;-64
2022/02/18 08:06:22;;;;;;;5.47;1.73;;;;;;;;;;4916043;29;20051;-64
2022/02/18 08:08:53;;;;;;;4.15;1.58;;;;;;;;;;4931708;29;20062;-64
2022/02/18 08:11:23;;;;;;;3.97;1.52;;;;;;;;;;4900731;29;20500;-64
2022/02/18 08:13:53;;;;;;;4.72;1.88;;;;;;;;;;4931624;29;20520;-64
2022/02/18 08:16:26;;;;;;;8.40;2.20;;;;;;;;;;4916079;29;20501;-64
2022/02/18 08:18:58;;;;;;;6.93;1.90;;;;;;;;;;4916265;29;20522;-65
2022/02/18 08:21:29;;;;;;;6.10;1.90;;;;;;;;;;4912465;29;20497;-65
2022/02/18 08:23:59;;;;;;;8.25;2.20;;;;;;;;;;4912523;29;20060;-64
2022/02/18 08:26:32;;;;;;;6.43;2.05;;;;;;;;;;4912458;29;20505;-64
2022/02/18 08:29:03;;;;;;;5.75;2.00;;;;;;;;;;4912348;29;20513;-64
2022/02/18 08:31:34;;;;;;;5.10;2.03;;;;;;;;;;4922964;29;20520;-64
2022/02/18 08:34:04;;;;;;;5.05;1.98;;;;;;;;;;4931449;29;20068;-64
2022/02/18 08:36:35;;;;;;;5.43;2.30;;;;;;;;;;4931211;29;20082;-65
2022/02/18 08:39:08;;;;;;;5.63;2.53;;;;;;;;;;4931454;29;20055;-64
2022/02/18 08:41:39;;;;;;;5.35;2.30;;;;;;;;;;4953768;28;20066;-64
2022/02/18 08:44:10;;;;;;;4.20;2.05;;;;;;;;;;4930922;29;20055;-64
2022/02/18 08:46:40;;;;;;;9.05;2.65;;;;;;;;;;4931200;29;20492;-64
2022/02/18 08:49:11;;;;;;;5.53;1.90;;;;;;;;;;4931352;29;20549;-64
2022/02/18 08:51:42;;;;;;;6.57;2.20;;;;;;;;;;4930881;29;20055;-65
2022/02/18 08:54:13;;;;;;;6.97;2.05;;;;;;;;;;4931270;29;20082;-64
2022/02/18 08:56:44;;;;;;;6.22;1.90;;;;;;;;;;4931060;29;20055;-64
2022/02/18 08:59:14;;;;;;;6.85;1.85;;;;;;;;;;4941623;29;20070;-64
2022/02/18 09:01:47;;;;;;;4.65;1.85;;;;;;;;;;4934761;29;20058;-64
2022/02/18 09:04:18;;;;;;;9.55;2.50;;;;;;;;;;4950254;29;20438;-64
2022/02/18 09:06:50;;;;;;;8.77;2.08;;;;;;;;;;4945910;28;20066;-64
2022/02/18 09:09:22;;;;;;;6.82;2.13;;;;;;;;;;4969605;28;20066;-65
2022/02/18 09:11:52;;;;;;;7.40;1.73;;;;;;;;;;4969456;28;20051;-65
2022/02/18 09:14:23;;;;;;;6.13;2.10;;;;;;;;;;4950474;28;20498;-64
2022/02/18 09:17:13;;;;;;;4.90;2.08;;;;;;;;;;4896765;29;20079;-65
2022/02/18 09:19:43;;;;;;;5.82;1.95;;;;;;;;;;4896749;29;20061;-64
2022/02/18 09:22:14;;;;;;;9.13;3.45;;;;;;;;;;4909620;29;20091;-65
2022/02/18 09:24:44;;;;;;;7.65;2.20;;;;;;;;;;4915411;29;20052;-65
2022/02/18 09:27:15;;;;;;;6.93;2.35;;;;;;;;;;4900048;29;20060;-65
2022/02/18 09:29:46;;;;;;;4.95;1.98;;;;;;;;;;4881275;29;20083;-64
2022/02/18 09:32:19;;;;;;;6.20;2.05;;;;;;;;;;4896837;29;20508;-65
2022/02/18 09:34:49;;;;;;;8.93;2.40;;;;;;;;;;4896219;29;20755;-64
2022/02/18 09:37:19;;;;;;;10.10;2.25;;;;;;;;;;4880673;29;20816;-65
2022/02/18 09:39:50;;;;;;;5.38;2.42;;;;;;;;;;4896493;29;20053;-65
2022/02/18 09:42:21;;;;;;;8.05;2.20;;;;;;;;;;4880721;29;20056;-66
2022/02/18 09:44:54;;;;;;;5.07;2.13;;;;;;;;;;4896246;29;20060;-65
2022/02/18 09:47:26;;;;;;;6.75;3.45;;;;;;;;;;4896371;29;20056;-64
2022/02/18 09:49:56;;;;;;;7.05;2.20;;;;;;;;;;4896349;29;20044;-65
2022/02/18 09:52:32;;;;;;;17.10;2.90;;;;;;;;;;4908887;29;20412;-65
2022/02/18 09:55:04;;;;;;;13.45;3.10;;;;;;;;;;4854853;29;21269;-64
2022/02/18 09:57:36;;;;;;;13.05;3.05;;;;;;;;;;4895893;29;20065;-65
2022/02/18 10:00:26;;;;;;;16.23;2.97;;;;;;;;;;4908512;29;20068;-65
2022/02/18 10:02:56;;;;;;;11.32;2.42;;;;;;;;;;4896155;29;20060;-65
2022/02/18 10:05:27;;;;;;;21.48;2.90;;;;;;;;;;4864743;29;20060;-64
2022/02/18 10:08:08;;;;;;;27.60;3.30;;;;;;;;;;4876854;29;20421;-65
2022/02/18 10:10:40;;;;;;;13.32;2.63;;;;;;;;;;4862370;29;20056;-67
2022/02/18 10:13:48;;;;;;;14.02;2.72;;;;;;;;;;4921728;29;20551;-67
2022/02/18 10:16:20;;;;;;;12.80;3.28;;;;;;;;;;4839763;29;20066;-65
2022/02/18 10:19:01;;;;;;;19.08;2.72;;;;;;;;;;4839740;29;20085;-65
2022/02/18 10:21:33;;;;;;;26.73;3.75;;;;;;;;;;4824909;29;20061;-65
2022/02/18 10:24:15;;;;;;;25.33;5.43;;;;;;;;;;4839862;29;20080;-65
2022/02/18 10:26:51;;;;;;;22.75;4.40;;;;;;;;;;4839879;29;20274;-65
2022/02/18 10:29:30;;;;;;;18.70;3.35;;;;;;;;;;4807392;29;20054;-67
2022/02/18 10:32:12;;;;;;;13.52;3.47;;;;;;;;;;4791219;29;20058;-65
2022/02/18 10:35:04;;;;;;;14.52;3.30;;;;;;;;;;4821492;29;20066;-65
2022/02/18 10:37:36;;;;;;;14.82;3.90;;;;;;;;;;4821252;29;20063;-65
2022/02/18 10:40:10;;;;;;;10.20;3.55;;;;;;;;;;4821471;29;20059;-65
2022/02/18 10:42:44;;;;;;;12.13;2.78;;;;;;;;;;4821222;29;20062;-68
2022/02/18 10:45:21;;;;;;;9.98;3.45;;;;;;;;;;4834809;29;20415;-65
2022/02/18 10:48:08;;;;;;;7.95;3.20;;;;;;;;;;4857497;29;20078;-65
2022/02/18 10:50:38;;;;;;;11.63;3.45;;;;;;;;;;4827432;29;20053;-65
2022/02/18 10:53:20;;;;;;;9.77;3.22;;;;;;;;;;4931386;29;20048;-65
2022/02/18 10:56:00;;;;;;;11.70;3.15;;;;;;;;;;4916777;29;20066;-65
2022/02/18 10:58:34;;;;;;;8.80;3.28;;;;;;;;;;4932085;29;20152;-66
2022/02/18 11:01:22;;;;;;;7.65;2.97;;;;;;;;;;4932511;29;20068;-65
2022/02/18 11:04:02;;;;;;;12.48;4.35;;;;;;;;;;4932572;29;20501;-66
2022/02/18 11:06:37;;;;;;;9.60;2.97;;;;;;;;;;4911739;29;20467;-66
2022/02/18 11:09:14;;;;;;;8.57;2.53;;;;;;;;;;4913404;29;20059;-66
2022/02/18 11:11:46;;;;;;;7.07;3.30;;;;;;;;;;4913592;29;20056;-66
2022/02/18 11:14:18;;;;;;;11.38;2.72;;;;;;;;;;4928437;29;20052;-66
2022/02/18 11:16:52;;;;;;;10.45;3.08;;;;;;;;;;4913702;29;20079;-65
2022/02/18 11:19:23;;;;;;;8.95;3.05;;;;;;;;;;4913299;29;20428;-65
2022/02/18 11:22:13;;;;;;;8.88;3.20;;;;;;;;;;4913475;29;20135;-65
2022/02/18 11:24:48;;;;;;;10.90;2.83;;;;;;;;;;4913195;29;20420;-66
2022/02/18 11:27:19;;;;;;;9.02;3.85;;;;;;;;;;4930656;29;20111;-65
2022/02/18 11:29:49;;;;;;;14.02;3.53;;;;;;;;;;4934017;29;20052;-67
2022/02/18 11:32:27;;;;;;;9.23;3.63;;;;;;;;;;4976135;28;20065;-65
2022/02/18 11:35:18;;;;;;;8.07;3.10;;;;;;;;;;4992592;28;20053;-65
2022/02/18 11:37:58;;;;;;;6.15;2.97;;;;;;;;;;4976962;28;20061;-65
2022/02/18 11:40:49;;;;;;;11.13;3.10;;;;;;;;;;5009616;28;20060;-65
2022/02/18 11:43:28;;;;;;;7.07;3.10;;;;;;;;;;5009563;28;20057;-65
2022/02/18 11:46:04;;;;;;;7.13;3.00;;;;;;;;;;4992987;28;20073;-66
2022/02/18 11:48:46;;;;;;;6.75;2.80;;;;;;;;;;5009394;28;20050;-64
2022/02/18 11:51:21;;;;;;;6.95;3.00;;;;;;;;;;5009117;28;20054;-65
2022/02/18 11:53:56;;;;;;;9.70;2.58;;;;;;;;;;4930560;28;20054;-65
2022/02/18 11:56:42;;;;;;;8.02;2.55;;;;;;;;;;4993074;28;20093;-66
2022/02/18 11:59:13;;;;;;;5.72;2.35;;;;;;;;;;4930090;28;20053;-68
2022/02/18 12:02:34;;;;;;;6.30;2.08;;;;;;;;;;4969864;28;20066;-65
2022/02/18 12:05:16;;;;;;;4.28;1.90;;;;;;;;;;4931563;29;20059;-65
2022/02/18 12:07:50;;;;;;;6.32;1.80;;;;;;;;;;4931624;29;20059;-65
2022/02/18 12:10:27;;;;;;;7.43;2.20;;;;;;;;;;4900049;29;20312;-65
2022/02/18 12:13:03;;;;;;;4.22;1.95;;;;;;;;;;4916562;29;20071;-66
2022/02/18 12:15:35;;;;;;;7.97;2.30;;;;;;;;;;4905239;29;20056;-65
2022/02/18 12:18:09;;;;;;;6.50;2.33;;;;;;;;;;4908937;29;20419;-67
2022/02/18 12:20:44;;;;;;;6.25;2.25;;;;;;;;;;4878329;29;20053;-67
2022/02/18 12:23:32;;;;;;;7.38;2.28;;;;;;;;;;4912228;29;20056;-66
2022/02/18 12:26:24;;;;;;;2.75;1.92;;;;;;;;;;4912487;29;20052;-71
2022/02/18 12:29:18;;;;;;;2.80;1.35;;;;;;;;;;4912440;29;20056;-66
2022/02/18 12:31:54;;;;;;;4.90;1.70;;;;;;;;;;4912078;29;20052;-65
2022/02/18 12:34:35;;;;;;;7.85;1.60;;;;;;;;;;4912312;29;20505;-67
2022/02/18 12:37:06;;;;;;;5.07;1.40;;;;;;;;;;4912281;29;20060;-65
2022/02/18 12:39:54;;;;;;;3.30;1.50;;;;;;;;;;4903704;29;20075;-66
2022/02/18 12:42:27;;;;;;;3.53;1.67;;;;;;;;;;4934441;29;20051;-66
2022/02/18 12:44:59;;;;;;;10.82;4.75;;;;;;;;;;4950454;29;20051;-65
2022/02/18 12:47:33;;;;;;;22.75;9.38;;;;;;;;;;4950349;29;20055;-65
2022/02/18 12:50:08;;;;;;;4.72;3.00;;;;;;;;;;4952431;28;20064;-65
2022/02/18 12:52:41;;;;;;;10.43;4.60;;;;;;;;;;4953988;29;20169;-64
2022/02/18 12:55:17;;;;;;;30.98;12.68;;;;;;;;;;4931946;29;20111;-65
2022/02/18 12:57:47;;;;;;;4.22;1.50;;;;;;;;;;4934915;29;20071;-65
2022/02/18 13:00:18;;;;;;;5.97;2.10;;;;;;;;;;4918093;28;20058;-65
2022/02/18 13:02:50;;;;;;;5.10;1.73;;;;;;;;;;4992999;28;20050;-66
2022/02/18 13:05:27;;;;;;;4.32;2.10;;;;;;;;;;4976219;28;20050;-65
2022/02/18 13:08:19;;;;;;;4.13;1.88;;;;;;;;;;4960354;28;20046;-66
2022/02/18 13:10:55;;;;;;;3.47;1.88;;;;;;;;;;4973199;28;20384;-66
2022/02/18 13:13:27;;;;;;;5.75;1.83;;;;;;;;;;4941196;28;20055;-65
2022/02/18 13:15:58;;;;;;;4.72;1.40;;;;;;;;;;4972900;28;20062;-64
2022/02/18 13:18:28;;;;;;;6.13;1.60;;;;;;;;;;4937680;29;20062;-64
2022/02/18 13:20:58;;;;;;;3.20;1.50;;;;;;;;;;4953729;29;20066;-68
2022/02/18 13:23:33;;;;;;;3.03;1.60;;;;;;;;;;4953694;29;20443;-65
2022/02/18 13:26:06;;;;;;;2.65;1.45;;;;;;;;;;4953484;29;20407;-64
2022/02/18 13:28:45;;;;;;;4.90;1.73;;;;;;;;;;4921618;29;20062;-67
2022/02/18 13:31:17;;;;;;;5.55;1.95;;;;;;;;;;4953753;29;20062;-65
2022/02/18 13:33:54;;;;;;;3.78;1.58;;;;;;;;;;4952741;29;20055;-68
2022/02/18 13:36:28;;;;;;;2.90;1.38;;;;;;;;;;4933988;29;20637;-65
2022/02/18 13:39:01;;;;;;;2.85;1.45;;;;;;;;;;4918778;29;20207;-64
2022/02/18 13:41:37;;;;;;;2.72;1.60;;;;;;;;;;4918283;29;20052;-65
2022/02/18 13:44:16;;;;;;;3.28;1.85;;;;;;;;;;4899082;29;20055;-64
2022/02/18 13:46:54;;;;;;;5.18;2.20;;;;;;;;;;4883977;29;20056;-65
2022/02/18 13:49:25;;;;;;;5.70;1.73;;;;;;;;;;4902878;29;20500;-65
2022/02/18 13:51:57;;;;;;;4.72;1.92;;;;;;;;;;4902676;29;20056;-65
2022/02/18 13:54:30;;;;;;;4.55;1.90;;;;;;;;;;4918339;29;20417;-66
2022/02/18 13:57:13;;;;;;;2.83;1.70;;;;;;;;;;4905727;29;20071;-66
2022/02/18 13:59:45;;;;;;;3.70;1.73;;;;;;;;;;4917611;29;20063;-65
2022/02/18 14:02:22;;;;;;;5.43;1.90;;;;;;;;;;4933788;29;20482;-65
2022/02/18 14:04:54;;;;;;;4.25;2.13;;;;;;;;;;4933752;29;20056;-66
2022/02/18 14:07:27;;;;;;;8.35;1.90;;;;;;;;;;4902873;29;20059;-66
2022/02/18 14:09:59;;;;;;;5.43;1.73;;;;;;;;;;4917848;29;20062;-67
2022/02/18 14:12:39;;;;;;;5.20;2.72;;;;;;;;;;4887007;29;20048;-65
2022/02/18 14:15:13;;;;;;;2.88;2.03;;;;;;;;;;4969907;28;20106;-65
2022/02/18 14:17:43;;;;;;;5.63;2.05;;;;;;;;;;4971951;28;20415;-69
2022/02/18 14:20:16;;;;;;;12.90;1.75;;;;;;;;;;4972202;28;20051;-66
2022/02/18 14:22:54;;;;;;;3.20;1.73;;;;;;;;;;4992117;28;20054;-66
2022/02/18 14:25:27;;;;;;;3.55;1.95;;;;;;;;;;4993733;28;20065;-66
2022/02/18 14:27:59;;;;;;;4.18;1.98;;;;;;;;;;4993485;28;20398;-66
2022/02/18 14:30:43;;;;;;;8.30;1.95;;;;;;;;;;4993739;28;20042;-66
2022/02/18 14:33:27;;;;;;;5.72;1.70;;;;;;;;;;4993606;28;20046;-67
2022/02/18 14:35:58;;;;;;;;;;;;;;;;;;4997668;28;20057;-66
2022/02/18 14:38:29;;;;;;;5.10;2.42;;;;;;;;;;4978691;28;19921;-66
2022/02/18 14:40:59;;;;;;;5.20;2.40;;;;;;;;;;4995992;28;20046;-66
2022/02/18 14:43:30;;;;;;;3.13;1.52;;;;;;;;;;5012937;28;20046;-67
2022/02/18 14:46:09;;;;;;;5.95;2.13;;;;;;;;;;5012928;28;20429;-66
2022/02/18 14:48:41;;;;;;;5.28;1.60;;;;;;;;;;5012753;28;20050;-67
2022/02/18 14:51:12;;;;;;;3.92;1.92;;;;;;;;;;4994390;28;20053;-66
2022/02/18 14:53:56;;;;;;;4.20;2.00;;;;;;;;;;4978141;28;20050;-66
2022/02/18 14:56:27;;;;;;;2.90;1.70;;;;;;;;;;4995933;28;20046;-67
2022/02/18 14:58:57;;;;;;;5.43;1.92;;;;;;;;;;5012641;28;20042;-66
2022/02/18 15:01:29;;;;;;;3.35;1.85;;;;;;;;;;5012694;28;20073;-66
2022/02/18 15:03:59;;;;;;;6.80;1.77;;;;;;;;;;5011546;28;20046;-66
2022/02/18 15:06:30;;;;;;;2.83;1.90;;;;;;;;;;4995444;28;20050;-67
2022/02/18 15:09:01;;;;;;;3.35;1.80;;;;;;;;;;4977909;28;20073;-66
2022/02/18 15:11:32;;;;;;;3.53;1.70;;;;;;;;;;4962754;28;20399;-69
2022/02/18 15:14:03;;;;;;;3.20;1.90;;;;;;;;;;4970572;28;20055;-66
2022/02/18 15:16:34;;;;;;;3.75;2.13;;;;;;;;;;4970993;28;20063;-66
2022/02/18 15:19:05;;;;;;;4.10;2.00;;;;;;;;;;4955036;28;20400;-66
2022/02/18 15:21:35;;;;;;;3.45;1.80;;;;;;;;;;4970947;28;20055;-65